createdAt,value
2022-11-05T00:00:02.178Z,4.45
2022-11-05T00:02:46.929Z,4.40
2022-11-05T00:05:31.686Z,4.39
2022-11-05T00:08:18.108Z,4.36
2022-11-05T00:10:44.388Z,4.37
2022-11-05T00:13:29.273Z,4.37
2022-11-05T00:16:14.014Z,4.35
2022-11-05T00:18:40.300Z,4.33
2022-11-05T00:21:26.542Z,4.32
2022-11-05T00:24:11.633Z,4.31
2022-11-05T00:26:37.871Z,4.31
2022-11-05T00:29:04.243Z,4.32
2022-11-05T00:31:32.002Z,4.31
2022-11-05T00:33:58.310Z,4.28
2022-11-05T00:36:24.557Z,4.22
2022-11-05T00:38:50.876Z,4.16
2022-11-05T00:41:17.118Z,4.10
2022-11-05T00:44:01.995Z,4.06
2022-11-05T00:46:28.270Z,4.02
2022-11-05T00:49:13.073Z,3.99
2022-11-05T00:51:39.311Z,3.94
2022-11-05T00:54:05.577Z,3.92
2022-11-05T00:56:31.856Z,3.87
2022-11-05T00:58:58.093Z,3.85
2022-11-05T01:01:24.433Z,3.84
2022-11-05T01:03:52.041Z,3.84
2022-11-05T01:06:18.473Z,3.88
2022-11-05T01:08:45.482Z,3.88
2022-11-05T01:11:13.134Z,3.87
2022-11-05T01:13:39.663Z,3.84
2022-11-05T01:16:07.230Z,3.79
2022-11-05T01:18:33.608Z,3.73
2022-11-05T01:20:59.845Z,3.72
2022-11-05T01:23:26.111Z,3.71
2022-11-05T01:25:52.417Z,3.64
2022-11-05T01:28:18.710Z,3.63
2022-11-05T01:30:44.971Z,3.60
2022-11-05T01:33:11.639Z,3.58
2022-11-05T01:35:39.209Z,3.55
2022-11-05T01:38:05.595Z,3.54
2022-11-05T01:40:31.852Z,3.59
2022-11-05T01:42:58.141Z,3.61
2022-11-05T01:45:26.023Z,3.65
2022-11-05T01:47:52.249Z,3.69
2022-11-05T01:50:18.486Z,3.69
2022-11-05T01:52:45.477Z,3.70
2022-11-05T01:55:13.283Z,3.72
2022-11-05T01:57:39.569Z,3.73
2022-11-05T02:00:06.535Z,3.71
2022-11-05T02:02:33.022Z,3.66
2022-11-05T02:05:03.475Z,3.65
2022-11-05T02:07:30.790Z,3.67
2022-11-05T02:10:08.029Z,3.67
2022-11-05T02:12:36.456Z,3.66
2022-11-05T02:15:02.765Z,3.65
2022-11-05T02:17:41.228Z,3.62
2022-11-05T02:20:25.141Z,3.54
2022-11-05T02:22:57.642Z,3.47
2022-11-05T02:25:23.870Z,3.44
2022-11-05T02:28:12.305Z,3.43
2022-11-05T02:30:50.942Z,3.43
2022-11-05T02:33:20.253Z,3.35
2022-11-05T02:35:46.481Z,3.29
2022-11-05T02:38:30.885Z,3.19
2022-11-05T02:41:08.257Z,3.07
2022-11-05T02:44:00.850Z,3.05
2022-11-05T02:46:27.103Z,3.10
2022-11-05T02:49:08.814Z,3.13
2022-11-05T02:51:48.174Z,3.11
2022-11-05T02:54:21.158Z,3.07
2022-11-05T02:56:49.676Z,3.03
2022-11-05T02:59:15.938Z,3.02
2022-11-05T03:01:43.771Z,3.04
2022-11-05T03:04:12.445Z,3.01
2022-11-05T03:06:57.418Z,3.04
2022-11-05T03:09:26.698Z,3.03
2022-11-05T03:11:55.982Z,3.02
2022-11-05T03:14:22.264Z,2.99
2022-11-05T03:16:54.319Z,2.97
2022-11-05T03:19:24.745Z,3.02
2022-11-05T03:21:56.261Z,3.05
2022-11-05T03:24:24.919Z,3.05
2022-11-05T03:26:55.080Z,3.02
2022-11-05T03:29:24.060Z,2.97
2022-11-05T03:31:52.110Z,2.97
2022-11-05T03:34:19.955Z,2.98
2022-11-05T03:36:48.764Z,3.05
2022-11-05T03:39:21.746Z,3.05
2022-11-05T03:41:50.663Z,3.08
2022-11-05T03:44:20.637Z,3.10
2022-11-05T03:46:49.334Z,3.10
2022-11-05T03:49:18.739Z,3.05
2022-11-05T03:51:48.595Z,3.02
2022-11-05T03:54:15.221Z,2.92
2022-11-05T03:57:00.670Z,2.83
2022-11-05T03:59:27.958Z,2.82
2022-11-05T04:01:54.612Z,2.80
2022-11-05T04:04:21.151Z,2.79
2022-11-05T04:07:05.896Z,2.81
2022-11-05T04:09:50.727Z,2.91
2022-11-05T04:12:35.643Z,2.93
2022-11-05T04:15:01.980Z,2.94
2022-11-05T04:17:28.219Z,2.89
2022-11-05T04:20:13.062Z,2.94
2022-11-05T04:22:57.992Z,2.92
2022-11-05T04:25:24.286Z,2.89
2022-11-05T04:27:51.082Z,2.88
2022-11-05T04:30:18.836Z,2.90
2022-11-05T04:33:03.812Z,2.94
2022-11-05T04:35:35.356Z,2.89
2022-11-05T04:38:02.005Z,2.96
2022-11-05T04:40:28.455Z,2.92
2022-11-05T04:42:55.613Z,2.90
2022-11-05T04:45:26.041Z,2.89
2022-11-05T04:47:52.334Z,3.02
2022-11-05T04:50:18.686Z,3.16
2022-11-05T04:52:45.046Z,3.18
2022-11-05T04:55:11.619Z,3.14
2022-11-05T04:57:37.870Z,3.17
2022-11-05T05:00:05.766Z,3.11
2022-11-05T05:02:32.155Z,3.20
2022-11-05T05:04:58.400Z,3.18
2022-11-05T05:07:24.725Z,3.08
2022-11-05T05:09:51.031Z,2.97
2022-11-05T05:12:17.288Z,2.90
2022-11-05T05:14:43.520Z,2.85
2022-11-05T05:17:09.779Z,2.80
2022-11-05T05:19:56.002Z,2.72
2022-11-05T05:22:22.275Z,2.61
2022-11-05T05:24:52.591Z,2.58
2022-11-05T05:27:19.308Z,2.54
2022-11-05T05:29:45.616Z,2.54
2022-11-05T05:32:11.858Z,2.53
2022-11-05T05:34:38.088Z,2.53
2022-11-05T05:37:04.341Z,2.52
2022-11-05T05:39:30.603Z,2.51
2022-11-05T05:41:56.944Z,2.50
2022-11-05T05:44:23.281Z,2.44
2022-11-05T05:46:49.533Z,2.44
2022-11-05T05:49:16.129Z,2.43
2022-11-05T05:51:42.435Z,2.42
2022-11-05T05:54:09.904Z,2.47
2022-11-05T05:56:36.202Z,2.52
2022-11-05T05:59:02.440Z,2.56
2022-11-05T06:01:28.684Z,2.50
2022-11-05T06:03:54.980Z,2.51
2022-11-05T06:06:21.344Z,2.56
2022-11-05T06:08:48.034Z,2.57
2022-11-05T06:11:14.312Z,2.61
2022-11-05T06:13:40.566Z,2.64
2022-11-05T06:16:08.419Z,2.67
2022-11-05T06:18:34.987Z,2.71
2022-11-05T06:21:04.850Z,2.76
2022-11-05T06:23:32.490Z,2.88
2022-11-05T06:25:59.615Z,2.97
2022-11-05T06:28:25.848Z,2.98
2022-11-05T06:30:52.140Z,2.97
2022-11-05T06:33:18.398Z,2.95
2022-11-05T06:35:44.633Z,2.99
2022-11-05T06:38:10.887Z,3.05
2022-11-05T06:40:37.174Z,3.08
2022-11-05T06:43:03.453Z,3.15
2022-11-05T06:45:29.718Z,3.23
2022-11-05T06:47:56.984Z,3.28
2022-11-05T06:50:23.729Z,3.30
2022-11-05T06:52:56.704Z,3.33
2022-11-05T06:55:23.160Z,3.37
2022-11-05T06:57:50.014Z,3.40
2022-11-05T07:00:17.115Z,3.42
2022-11-05T07:02:43.684Z,3.43
2022-11-05T07:05:12.877Z,3.52
2022-11-05T07:07:39.810Z,3.55
2022-11-05T07:10:07.255Z,3.58
2022-11-05T07:12:33.559Z,3.60
2022-11-05T07:14:59.805Z,3.65
2022-11-05T07:17:26.104Z,3.64
2022-11-05T07:19:52.361Z,3.73
2022-11-05T07:22:18.622Z,3.81
2022-11-05T07:24:47.130Z,3.85
2022-11-05T07:27:14.092Z,3.92
2022-11-05T07:29:40.370Z,3.95
2022-11-05T07:32:06.667Z,3.99
2022-11-05T07:34:32.916Z,4.07
2022-11-05T07:36:59.351Z,4.10
2022-11-05T07:39:25.895Z,4.18
2022-11-05T07:41:54.740Z,4.18
2022-11-05T07:44:21.534Z,4.22
2022-11-05T07:46:47.768Z,4.29
2022-11-05T07:49:14.018Z,4.40
2022-11-05T07:51:40.287Z,4.49
2022-11-05T07:54:06.581Z,4.60
2022-11-05T07:56:32.926Z,4.65
2022-11-05T07:58:59.690Z,4.70
2022-11-05T08:01:26.188Z,4.77
2022-11-05T08:03:52.613Z,4.80
2022-11-05T08:06:19.014Z,4.84
2022-11-05T08:08:45.274Z,4.87
2022-11-05T08:11:12.231Z,4.89
2022-11-05T08:13:38.561Z,4.90
2022-11-05T08:16:05.213Z,4.91
2022-11-05T08:18:32.132Z,4.90
2022-11-05T08:20:59.599Z,4.92
2022-11-05T08:23:26.595Z,4.98
2022-11-05T08:25:53.099Z,5.05
2022-11-05T08:28:21.453Z,5.18
2022-11-05T08:30:51.504Z,5.35
2022-11-05T08:33:18.206Z,5.50
2022-11-05T08:35:44.548Z,5.58
2022-11-05T08:38:13.621Z,5.62
2022-11-05T08:40:40.630Z,5.62
2022-11-05T08:43:07.889Z,5.62
2022-11-05T08:45:34.891Z,5.69
2022-11-05T08:48:05.478Z,5.79
2022-11-05T08:50:31.968Z,5.91
2022-11-05T08:52:58.580Z,6.01
2022-11-05T08:55:25.189Z,6.02
2022-11-05T08:58:02.035Z,6.02
2022-11-05T09:00:29.788Z,6.00
2022-11-05T09:02:58.192Z,5.97
2022-11-05T09:05:24.458Z,5.93
2022-11-05T09:07:51.621Z,5.88
2022-11-05T09:10:20.609Z,5.90
2022-11-05T09:12:46.867Z,6.01
2022-11-05T09:15:13.121Z,6.13
2022-11-05T09:17:39.806Z,6.28
2022-11-05T09:20:07.209Z,6.41
2022-11-05T09:22:33.681Z,6.56
2022-11-05T09:24:59.971Z,6.70
2022-11-05T09:27:26.508Z,6.89
2022-11-05T09:29:52.760Z,7.02
2022-11-05T09:32:19.398Z,7.14
2022-11-05T09:34:45.715Z,7.24
2022-11-05T09:37:12.042Z,7.37
2022-11-05T09:39:38.358Z,7.35
2022-11-05T09:42:07.021Z,7.28
2022-11-05T09:44:45.683Z,7.18
2022-11-05T09:47:15.170Z,7.12
2022-11-05T09:49:44.188Z,7.10
2022-11-05T09:52:13.466Z,7.07
2022-11-05T09:54:40.923Z,7.07
2022-11-05T09:57:11.654Z,7.07
2022-11-05T09:59:38.132Z,7.13
2022-11-05T10:02:12.833Z,7.21
2022-11-05T10:04:39.473Z,7.35
2022-11-05T10:07:07.494Z,7.49
2022-11-05T10:09:55.452Z,7.58
2022-11-05T10:12:43.678Z,7.70
2022-11-05T10:15:18.637Z,7.85
2022-11-05T10:17:48.165Z,8.00
2022-11-05T10:20:18.457Z,8.09
2022-11-05T10:22:49.277Z,8.15
2022-11-05T10:25:18.199Z,8.17
2022-11-05T10:27:53.157Z,8.31
2022-11-05T10:30:19.964Z,8.54
2022-11-05T10:32:47.111Z,8.82
2022-11-05T10:35:18.313Z,9.02
2022-11-05T10:37:46.104Z,9.25
2022-11-05T10:40:25.185Z,9.28
2022-11-05T10:42:58.537Z,9.25
2022-11-05T10:45:30.649Z,9.17
2022-11-05T10:48:05.212Z,9.08
2022-11-05T10:50:32.238Z,9.03
2022-11-05T10:53:01.245Z,9.08
2022-11-05T10:55:27.544Z,9.19
2022-11-05T10:57:54.088Z,9.65
2022-11-05T11:00:21.876Z,10.69
2022-11-05T11:02:50.100Z,11.75
2022-11-05T11:05:21.559Z,12.45
2022-11-05T11:07:57.260Z,12.75
2022-11-05T11:10:24.105Z,12.97
2022-11-05T11:12:50.937Z,13.02
2022-11-05T11:15:19.937Z,13.11
2022-11-05T11:17:46.242Z,13.57
2022-11-05T11:20:23.859Z,13.55
2022-11-05T11:23:04.575Z,13.38
2022-11-05T11:25:33.870Z,13.12
2022-11-05T11:28:04.233Z,12.41
2022-11-05T11:30:30.834Z,11.55
2022-11-05T11:32:59.712Z,11.16
2022-11-05T11:35:26.132Z,11.14
2022-11-05T11:37:54.645Z,11.33
2022-11-05T11:40:23.033Z,11.43
2022-11-05T11:42:52.335Z,11.10
2022-11-05T11:45:24.546Z,10.88
2022-11-05T11:47:50.984Z,10.70
2022-11-05T11:50:32.939Z,10.55
2022-11-05T11:53:17.874Z,10.45
2022-11-05T11:56:03.071Z,10.34
2022-11-05T11:58:43.237Z,10.24
2022-11-05T12:01:09.488Z,10.21
2022-11-05T12:03:41.273Z,10.30
2022-11-05T12:06:19.662Z,10.34
2022-11-05T12:08:54.892Z,10.39
2022-11-05T12:11:37.737Z,10.46
2022-11-05T12:14:09.713Z,10.51
2022-11-05T12:16:35.944Z,10.57
2022-11-05T12:19:11.838Z,10.67
2022-11-05T12:21:52.564Z,10.89
2022-11-05T12:24:35.570Z,11.48
2022-11-05T12:27:14.794Z,12.21
2022-11-05T12:29:47.064Z,12.45
2022-11-05T12:32:29.765Z,12.64
2022-11-05T12:35:03.362Z,13.20
2022-11-05T12:37:45.654Z,13.24
2022-11-05T12:40:17.637Z,13.15
2022-11-05T12:42:52.956Z,13.10
2022-11-05T12:45:25.355Z,13.28
2022-11-05T12:48:10.372Z,13.29
2022-11-05T12:50:39.616Z,13.66
2022-11-05T12:53:15.232Z,13.74
2022-11-05T12:55:48.613Z,13.87
2022-11-05T12:58:19.424Z,13.64
2022-11-05T13:00:49.333Z,12.50
2022-11-05T13:03:28.933Z,11.77
2022-11-05T13:06:04.554Z,11.50
2022-11-05T13:08:35.102Z,11.30
2022-11-05T13:11:15.029Z,11.15
2022-11-05T13:13:59.975Z,11.21
2022-11-05T13:16:42.546Z,11.42
2022-11-05T13:19:31.928Z,11.44
2022-11-05T13:22:07.789Z,11.37
2022-11-05T13:24:39.678Z,11.28
2022-11-05T13:27:18.086Z,11.25
2022-11-05T13:29:52.832Z,11.13
2022-11-05T13:32:24.963Z,10.97
2022-11-05T13:34:51.569Z,10.83
2022-11-05T13:37:40.996Z,10.76
2022-11-05T13:40:09.305Z,10.72
2022-11-05T13:42:42.051Z,10.66
2022-11-05T13:45:26.866Z,10.60
2022-11-05T13:47:59.158Z,10.57
2022-11-05T13:50:31.484Z,10.45
2022-11-05T13:53:16.706Z,10.35
2022-11-05T13:55:48.983Z,10.36
2022-11-05T13:58:27.410Z,10.36
2022-11-05T14:01:02.762Z,10.43
2022-11-05T14:03:29.533Z,10.46
2022-11-05T14:05:59.808Z,10.47
2022-11-05T14:08:27.567Z,10.47
2022-11-05T14:10:56.889Z,10.46
2022-11-05T14:13:42.405Z,10.44
2022-11-05T14:16:29.597Z,10.42
2022-11-05T14:19:14.660Z,10.48
2022-11-05T14:21:54.444Z,10.38
2022-11-05T14:24:23.768Z,10.26
2022-11-05T14:27:02.068Z,10.16
2022-11-05T14:29:37.570Z,10.04
2022-11-05T14:32:22.898Z,10.01
2022-11-05T14:34:55.680Z,10.07
2022-11-05T14:37:25.029Z,10.05
2022-11-05T14:39:52.413Z,10.05
2022-11-05T14:42:29.088Z,10.16
2022-11-05T14:45:22.125Z,10.34
2022-11-05T14:47:59.265Z,10.40
2022-11-05T14:50:28.349Z,10.33
2022-11-05T14:52:56.821Z,10.21
2022-11-05T14:55:26.819Z,10.10
2022-11-05T14:57:53.098Z,9.98
2022-11-05T15:00:28.527Z,9.83
2022-11-05T15:02:59.298Z,9.67
2022-11-05T15:05:34.018Z,9.50
2022-11-05T15:08:20.217Z,9.35
2022-11-05T15:10:47.913Z,9.23
2022-11-05T15:13:25.438Z,9.12
2022-11-05T15:15:51.801Z,8.99
2022-11-05T15:18:33.620Z,8.91
2022-11-05T15:21:01.807Z,8.84
2022-11-05T15:23:33.024Z,8.76
2022-11-05T15:26:13.003Z,8.68
2022-11-05T15:28:41.435Z,8.61
2022-11-05T15:31:22.532Z,8.52
2022-11-05T15:33:48.802Z,8.43
2022-11-05T15:36:22.505Z,8.40
2022-11-05T15:39:08.485Z,8.36
2022-11-05T15:41:35.032Z,8.34
2022-11-05T15:44:02.664Z,8.28
2022-11-05T15:46:29.768Z,8.26
2022-11-05T15:49:06.970Z,8.23
2022-11-05T15:51:33.596Z,8.23
2022-11-05T15:54:24.399Z,8.26
2022-11-05T15:56:50.391Z,8.27
2022-11-05T15:59:18.166Z,8.29
2022-11-05T16:01:50.308Z,8.29
2022-11-05T16:04:24.268Z,8.28
2022-11-05T16:06:52.562Z,8.23
2022-11-05T16:09:24.906Z,8.19
2022-11-05T16:12:10.222Z,8.17
2022-11-05T16:14:36.528Z,8.16
2022-11-05T16:17:10.189Z,8.16
2022-11-05T16:19:40.762Z,8.16
2022-11-05T16:22:07.490Z,8.16
2022-11-05T16:24:33.778Z,8.15
2022-11-05T16:27:03.792Z,8.16
2022-11-05T16:29:34.187Z,8.24
2022-11-05T16:32:01.807Z,8.24
2022-11-05T16:34:31.246Z,8.25
2022-11-05T16:36:58.917Z,8.24
2022-11-05T16:39:25.459Z,8.22
2022-11-05T16:41:51.795Z,8.21
2022-11-05T16:44:18.183Z,8.24
2022-11-05T16:46:47.313Z,8.27
2022-11-05T16:49:13.585Z,8.34
2022-11-05T16:51:39.838Z,8.39
2022-11-05T16:54:06.317Z,8.40
2022-11-05T16:56:32.943Z,8.41
2022-11-05T16:58:59.500Z,8.40
2022-11-05T17:01:26.027Z,8.38
2022-11-05T17:03:52.897Z,8.36
2022-11-05T17:06:20.292Z,8.36
2022-11-05T17:08:47.072Z,8.37
2022-11-05T17:11:15.126Z,8.34
2022-11-05T17:13:41.875Z,8.36
2022-11-05T17:16:09.859Z,8.35
2022-11-05T17:18:36.338Z,8.35
2022-11-05T17:21:02.565Z,8.33
2022-11-05T17:23:29.818Z,8.31
2022-11-05T17:26:00.929Z,8.30
2022-11-05T17:28:28.950Z,8.29
2022-11-05T17:30:55.235Z,8.30
2022-11-05T17:33:22.768Z,8.31
2022-11-05T17:35:49.507Z,8.28
2022-11-05T17:38:15.756Z,8.26
2022-11-05T17:40:42.045Z,8.26
2022-11-05T17:43:08.562Z,8.23
2022-11-05T17:45:40.183Z,8.22
2022-11-05T17:48:08.088Z,8.18
2022-11-05T17:50:34.339Z,8.19
2022-11-05T17:53:00.619Z,8.17
2022-11-05T17:55:26.870Z,8.17
2022-11-05T17:57:53.158Z,8.19
2022-11-05T18:00:23.475Z,8.17
2022-11-05T18:02:50.151Z,8.13
2022-11-05T18:05:17.439Z,8.10
2022-11-05T18:07:43.967Z,8.06
2022-11-05T18:10:11.058Z,8.02
2022-11-05T18:12:37.777Z,8.00
2022-11-05T18:15:04.390Z,7.96
2022-11-05T18:17:30.730Z,7.92
2022-11-05T18:19:57.144Z,7.91
2022-11-05T18:22:23.388Z,7.89
2022-11-05T18:24:49.689Z,7.89
2022-11-05T18:27:15.998Z,7.86
2022-11-05T18:29:42.314Z,7.85
2022-11-05T18:32:08.599Z,7.80
2022-11-05T18:34:35.167Z,7.80
2022-11-05T18:37:01.492Z,7.79
2022-11-05T18:39:27.778Z,7.78
2022-11-05T18:41:54.080Z,7.78
2022-11-05T18:44:22.770Z,7.79
2022-11-05T18:46:58.071Z,7.76
2022-11-05T18:49:24.677Z,7.75
2022-11-05T18:51:51.083Z,7.74
2022-11-05T18:54:17.331Z,7.71
2022-11-05T18:56:46.535Z,7.69
2022-11-05T18:59:35.281Z,7.69
2022-11-05T19:01:59.727Z,7.69
2022-11-05T19:04:26.956Z,7.70
2022-11-05T19:06:53.327Z,7.67
2022-11-05T19:09:20.530Z,7.67
2022-11-05T19:11:46.779Z,7.66
2022-11-05T19:14:13.073Z,7.66
2022-11-05T19:16:39.516Z,7.66
2022-11-05T19:19:06.811Z,7.67
2022-11-05T19:21:33.413Z,7.69
2022-11-05T19:24:01.441Z,7.67
2022-11-05T19:26:29.009Z,7.66
2022-11-05T19:28:57.289Z,7.66
2022-11-05T19:31:23.607Z,7.62
2022-11-05T19:33:50.755Z,7.60
2022-11-05T19:36:17.695Z,7.61
2022-11-05T19:38:44.196Z,7.61
2022-11-05T19:41:13.943Z,7.61
2022-11-05T19:43:40.982Z,7.62
2022-11-05T19:46:08.840Z,7.65
2022-11-05T19:48:35.328Z,7.67
2022-11-05T19:51:04.165Z,7.66
2022-11-05T19:53:30.473Z,7.66
2022-11-05T19:55:56.782Z,7.64
2022-11-05T19:58:23.091Z,7.65
2022-11-05T20:00:49.354Z,7.63
2022-11-05T20:03:15.884Z,7.66
2022-11-05T20:05:42.200Z,7.67
2022-11-05T20:08:08.686Z,7.68
2022-11-05T20:10:36.846Z,7.69
2022-11-05T20:13:03.476Z,7.69
2022-11-05T20:15:29.725Z,7.70
2022-11-05T20:17:56.015Z,7.70
2022-11-05T20:20:22.273Z,7.71
2022-11-05T20:22:48.599Z,7.72
2022-11-05T20:25:14.957Z,7.73
2022-11-05T20:27:41.987Z,7.73
2022-11-05T20:30:08.793Z,7.72
2022-11-05T20:32:35.066Z,7.70
2022-11-05T20:35:01.345Z,7.73
2022-11-05T20:37:27.622Z,7.72
2022-11-05T20:39:53.878Z,7.69
2022-11-05T20:42:20.130Z,7.67
2022-11-05T20:44:46.390Z,7.63
2022-11-05T20:47:12.697Z,7.59
2022-11-05T20:49:39.047Z,7.57
2022-11-05T20:52:05.452Z,7.56
2022-11-05T20:54:31.697Z,7.54
2022-11-05T20:56:57.933Z,7.51
2022-11-05T20:59:24.473Z,7.52
2022-11-05T21:01:51.688Z,7.51
2022-11-05T21:04:18.089Z,7.48
2022-11-05T21:06:44.370Z,7.48
2022-11-05T21:09:10.600Z,7.47
2022-11-05T21:11:55.572Z,7.49
2022-11-05T21:14:21.832Z,7.49
2022-11-05T21:16:48.311Z,7.52
2022-11-05T21:19:15.281Z,7.51
2022-11-05T21:21:41.558Z,7.50
2022-11-05T21:24:08.077Z,7.53
2022-11-05T21:26:34.365Z,7.52
2022-11-05T21:29:00.632Z,7.52
2022-11-05T21:31:26.874Z,7.51
2022-11-05T21:33:55.333Z,7.52
2022-11-05T21:36:21.805Z,7.55
2022-11-05T21:38:48.105Z,7.53
2022-11-05T21:41:14.394Z,7.52
2022-11-05T21:43:41.667Z,7.52
2022-11-05T21:46:07.992Z,7.53
2022-11-05T21:48:34.290Z,7.54
2022-11-05T21:51:19.354Z,7.55
2022-11-05T21:54:04.288Z,7.56
2022-11-05T21:56:49.691Z,7.58
2022-11-05T21:59:35.601Z,7.56
2022-11-05T22:02:02.390Z,7.53
2022-11-05T22:04:29.561Z,7.51
2022-11-05T22:06:56.989Z,7.50
2022-11-05T22:09:24.210Z,7.48
2022-11-05T22:11:50.476Z,7.47
2022-11-05T22:14:16.733Z,7.48
2022-11-05T22:16:43.359Z,7.46
2022-11-05T22:19:09.913Z,7.47
2022-11-05T22:21:36.221Z,7.47
2022-11-05T22:24:02.611Z,7.47
2022-11-05T22:26:28.947Z,7.46
2022-11-05T22:28:55.794Z,7.47
2022-11-05T22:31:22.387Z,7.46
2022-11-05T22:33:48.703Z,7.45
2022-11-05T22:36:15.020Z,7.45
2022-11-05T22:38:41.532Z,7.45
2022-11-05T22:41:11.888Z,7.44
2022-11-05T22:43:38.490Z,7.46
2022-11-05T22:46:05.719Z,7.46
2022-11-05T22:48:32.129Z,7.45
2022-11-05T22:51:09.117Z,7.46
2022-11-05T22:53:36.067Z,7.46
2022-11-05T22:56:03.707Z,7.46
2022-11-05T22:58:30.128Z,7.48
2022-11-05T23:00:56.410Z,7.47
2022-11-05T23:03:24.196Z,7.46
2022-11-05T23:06:00.594Z,7.47
2022-11-05T23:08:45.898Z,7.47
2022-11-05T23:11:34.739Z,7.47
2022-11-05T23:14:01.551Z,7.49
2022-11-05T23:16:48.168Z,7.49
2022-11-05T23:19:32.797Z,7.48
2022-11-05T23:22:17.543Z,7.49
2022-11-05T23:24:43.877Z,7.47
2022-11-05T23:27:10.175Z,7.47
2022-11-05T23:29:36.460Z,7.50
2022-11-05T23:32:21.234Z,7.47
2022-11-05T23:34:47.505Z,7.46
2022-11-05T23:37:32.166Z,7.47
2022-11-05T23:39:58.421Z,7.47
2022-11-05T23:42:43.269Z,7.49
2022-11-05T23:45:28.571Z,7.51
2022-11-05T23:48:13.452Z,7.52
2022-11-05T23:50:40.773Z,7.54
2022-11-05T23:53:07.210Z,7.56
2022-11-05T23:55:33.755Z,7.58
2022-11-05T23:58:00.014Z,7.58
